This is the latest recevied weather packets stored in our database for station/object 9W2UHF-10. If no packets are shown the sender has not sent any weather packets the latest 10 day(s).
| Time | Temp. | Humidity | Pressure | Rain* | Wind** | Luminosity | Snow |
|---|---|---|---|---|---|---|---|
| 1777910973 | 30.56° C | 70% | 1012.8 hPa | - | - | - | - |
| 1777908573 | 30.56° C | 67% | 1013 hPa | - | - | - | - |
| 1777907373 | 30.56° C | 68% | 1012.9 hPa | - | - | - | - |
| 1777906173 | 30.56° C | 69% | 1012.7 hPa | - | - | - | - |
| 1777904973 | 30.56° C | 70% | 1012.5 hPa | - | - | - | - |
| 1777903773 | 30.56° C | 69% | 1012.2 hPa | - | - | - | - |
| 1777902573 | 30.56° C | 69% | 1012 hPa | - | - | - | - |
| 1777901372 | 30.56° C | 68% | 1012.2 hPa | - | - | - | - |
| 1777900670 | 31.11° C | 67% | 1010.3 hPa | - | - | - | - |
| 1777900276 | 31.11° C | 67% | 1010.3 hPa | - | - | - | - |
| 1777899870 | 31.11° C | 67% | 1009.9 hPa | - | - | - | - |
| 1777898004 | 31.11° C | 67% | 1009.6 hPa | - | - | - | - |
| 1777897772 | 30.56° C | 69% | 1011.2 hPa | - | - | - | - |
| 1777897515 | 31.67° C | 64% | 1010.3 hPa | - | - | - | - |
| 1777896572 | 30.56° C | 68% | 1010.9 hPa | - | - | - | - |
| 1777896344 | 32.22° C | 66% | 1011.4 hPa | - | - | - | - |
| 1777895829 | 32.22° C | 66% | 1011.9 hPa | - | - | - | - |
| 1777895372 | 30.56° C | 68% | 1010.6 hPa | - | - | - | - |
| 1777894172 | 31.11° C | 67% | 1010.3 hPa | - | - | - | - |
| 1777892972 | 31.11° C | 67% | 1010.3 hPa | - | - | - | - |
| 1777891772 | 31.11° C | 67% | 1009.9 hPa | - | - | - | - |
| 1777889372 | 31.11° C | 69% | 1009.7 hPa | - | - | - | - |
| 1777888172 | 31.11° C | 70% | 1009.3 hPa | - | - | - | - |
| 1777886971 | 31.11° C | 67% | 1009.6 hPa | - | - | - | - |
| 1777885771 | 31.11° C | 67% | 1009.8 hPa | - | - | - | - |
* Rain since midnight (hover to see other rain measurements)
** Current wind speed in m/s (hover to see current wind gust speed)